^^
Grace C. Lehan Memorial Weather Station Historical Data
Daily Summary for October 3, 2021 Units:  Both    English   Metric
Daily Weekly Monthly Yearly
  High: Low: Average:
Temperature: 74.6 °F /  23.7 °C 55 °F /  12.8 °C 65.4 °F /  18.6 °C
Dew Point: 65.1 °F /  18.4 °C 53 °F /  11.7 °C 59.5 °F /  15.3 °C
Humidity: 94% 62.3% 82%
Wind Speed: 0.4mph /  0.6km/h - 0mph /  0km/h
Wind Gust: 5mph /  8km/h - -
Wind- - SW
Pressure: 29.99 in /  1015.5 hPa 29.88 in /  1011.7 hPa -
Precipitation: 0.04 in /  1.02 mm    
 
 
Tabular Data for October 3, 2021
Time Temperature Dew Point Pressure Wind Wind Speed Wind Gust Humidity Rainfall Rate (Hourly) solar
00:09 62 °F /  16.7 °C 56.2 °F /  13.4 °C 29.99in /  1015.5hPa Calm     81.2% 0.00in /  0mm 0 W/m2
00:14 61.8 °F /  16.6 °C 56.2 °F /  13.4 °C 29.99in /  1015.5hPa Calm     82% 0.00in /  0mm 0 W/m2
00:19 61.6 °F /  16.4 °C 56.1 °F /  13.4 °C 29.99in /  1015.5hPa Calm     82% 0.00in /  0mm 0 W/m2
00:24 61.4 °F /  16.3 °C 56.1 °F /  13.4 °C 29.99in /  1015.5hPa Calm     82.5% 0.00in /  0mm 0 W/m2
00:29 61.3 °F /  16.3 °C 56.1 °F /  13.4 °C 29.99in /  1015.5hPa Calm     83% 0.00in /  0mm 0 W/m2
00:34 61.1 °F /  16.2 °C 55.9 °F /  13.3 °C 29.99in /  1015.5hPa Calm     83% 0.00in /  0mm 0 W/m2
00:39 60.9 °F /  16.1 °C 55.7 °F /  13.2 °C 29.99in /  1015.5hPa Calm     83% 0.00in /  0mm 0 W/m2
00:44 60.8 °F /  16 °C 55.8 °F /  13.2 °C 29.99in /  1015.5hPa Calm     83.6% 0.00in /  0mm 0 W/m2
00:49 60.6 °F /  15.9 °C 55.8 °F /  13.2 °C 29.99in /  1015.5hPa Calm     84% 0.00in /  0mm 0 W/m2
00:54 60.5 °F /  15.8 °C 55.6 °F /  13.1 °C 29.99in /  1015.5hPa Calm     84% 0.00in /  0mm 0 W/m2
00:59 60.4 °F /  15.8 °C 55.6 °F /  13.1 °C 29.98in /  1015.1hPa Calm     84.3% 0.00in /  0mm 0 W/m2
01:04 60.2 °F /  15.7 °C 55.7 °F /  13.2 °C 29.98in /  1015.1hPa Calm     85% 0.00in /  0mm 0 W/m2
01:09 60.1 °F /  15.6 °C 55.6 °F /  13.1 °C 29.98in /  1015.1hPa Calm     85% 0.00in /  0mm 0 W/m2
01:14 60 °F /  15.6 °C 55.5 °F /  13.1 °C 29.98in /  1015.1hPa Calm     85% 0.00in /  0mm 0 W/m2
01:19 60 °F /  15.6 °C 55.7 °F /  13.2 °C 29.98in /  1015.1hPa Calm     85.7% 0.00in /  0mm 0 W/m2
01:24 60 °F /  15.6 °C 55.8 °F /  13.2 °C 29.98in /  1015.1hPa Calm     86% 0.00in /  0mm 0 W/m2
01:29 60.1 °F /  15.6 °C 55.8 °F /  13.2 °C 29.98in /  1015.1hPa Calm     85.8% 0.00in /  0mm 0 W/m2
01:34 60.1 °F /  15.6 °C 55.6 °F /  13.1 °C 29.98in /  1015.1hPa Calm     85% 0.00in /  0mm 0 W/m2
01:39 60.2 °F /  15.7 °C 55.9 °F /  13.3 °C 29.98in /  1015.1hPa Calm     85.7% 0.00in /  0mm 0 W/m2
01:44 60.2 °F /  15.7 °C 56 °F /  13.3 °C 29.98in /  1015.1hPa Calm   2mph /  3.2km/h 86% 0.00in /  0mm 0 W/m2
01:49 60.4 °F /  15.8 °C 56.1 °F /  13.4 °C 29.98in /  1015.1hPa WNW 0.4mph /  0.6km/h 5mph /  8km/h 85.8% 0.00in /  0mm 0 W/m2
01:54 60.5 °F /  15.8 °C 55.9 °F /  13.3 °C 29.98in /  1015.1hPa Calm   5mph /  8km/h 85% 0.00in /  0mm 0 W/m2
01:59 60.5 °F /  15.8 °C 55.8 °F /  13.2 °C 29.97in /  1014.8hPa Calm   5mph /  8km/h 84.2% 0.00in /  0mm 0 W/m2
02:04 60.5 °F /  15.8 °C 55.7 °F /  13.2 °C 29.97in /  1014.8hPa Calm   5mph /  8km/h 84% 0.00in /  0mm 0 W/m2
02:09 60.5 °F /  15.8 °C 55.6 °F /  13.1 °C 29.97in /  1014.8hPa Calm     84% 0.00in /  0mm 0 W/m2
02:14 60.4 °F /  15.8 °C 55.8 °F /  13.2 °C 29.98in /  1015.1hPa Calm     84.8% 0.00in /  0mm 0 W/m2
02:19 60.4 °F /  15.8 °C 55.9 °F /  13.3 °C 29.98in /  1015.1hPa Calm     85% 0.00in /  0mm 0 W/m2
02:24 60.4 °F /  15.8 °C 55.9 °F /  13.3 °C 29.98in /  1015.1hPa Calm     85% 0.00in /  0mm 0 W/m2
02:29 60.3 °F /  15.7 °C 55.6 °F /  13.1 °C 29.98in /  1015.1hPa Calm     84.3% 0.00in /  0mm 0 W/m2
02:34 60.2 °F /  15.7 °C 55.7 °F /  13.2 °C 29.98in /  1015.1hPa Calm   1mph /  1.6km/h 85% 0.00in /  0mm 0 W/m2
02:39 60.1 °F /  15.6 °C 55.5 °F /  13.1 °C 29.98in /  1015.1hPa Calm   1mph /  1.6km/h 85% 0.00in /  0mm 0 W/m2
02:44 60 °F /  15.6 °C 55.5 °F /  13.1 °C 29.98in /  1015.1hPa Calm   1mph /  1.6km/h 85% 0.00in /  0mm 0 W/m2
02:49 60 °F /  15.6 °C 55.7 °F /  13.2 °C 29.97in /  1014.8hPa Calm   1mph /  1.6km/h 85.6% 0.00in /  0mm 0 W/m2
02:54 60 °F /  15.6 °C 55.5 °F /  13.1 °C 29.97in /  1014.8hPa Calm   1mph /  1.6km/h 85% 0.00in /  0mm 0 W/m2
02:59 60 °F /  15.6 °C 55.5 °F /  13.1 °C 29.97in /  1014.8hPa Calm   1mph /  1.6km/h 85% 0.00in /  0mm 0 W/m2
03:04 59.9 °F /  15.5 °C 55.4 °F /  13 °C 29.97in /  1014.8hPa Calm   1mph /  1.6km/h 85% 0.00in /  0mm 0 W/m2
03:09 59.8 °F /  15.4 °C 55.6 °F /  13.1 °C 29.97in /  1014.8hPa Calm     85.7% 0.00in /  0mm 0 W/m2
03:14 59.8 °F /  15.4 °C 55.6 °F /  13.1 °C 29.97in /  1014.8hPa Calm     86% 0.00in /  0mm 0 W/m2
03:19 59.6 °F /  15.3 °C 55.4 °F /  13 °C 29.96in /  1014.4hPa Calm     86% 0.00in /  0mm 0 W/m2
03:24 59.3 °F /  15.2 °C 55.2 °F /  12.9 °C 29.96in /  1014.4hPa Calm     86.1% 0.00in /  0mm 0 W/m2
03:29 59.2 °F /  15.1 °C 55.3 °F /  12.9 °C 29.96in /  1014.4hPa Calm     87% 0.00in /  0mm 0 W/m2
03:34 59 °F /  15 °C 55.4 °F /  13 °C 29.96in /  1014.4hPa Calm     87.7% 0.00in /  0mm 0 W/m2
03:39 58.9 °F /  14.9 °C 55 °F /  12.8 °C 29.96in /  1014.4hPa Calm     87% 0.00in /  0mm 0 W/m2
03:44 58.7 °F /  14.8 °C 55.1 °F /  12.8 °C 29.96in /  1014.4hPa Calm     87.7% 0.00in /  0mm 0 W/m2
03:49 58.7 °F /  14.8 °C 55.1 °F /  12.8 °C 29.96in /  1014.4hPa Calm     88% 0.00in /  0mm 0 W/m2
03:54 58.6 °F /  14.8 °C 55 °F /  12.8 °C 29.96in /  1014.4hPa Calm     88% 0.00in /  0mm 0 W/m2
03:59 58.5 °F /  14.7 °C 55 °F /  12.8 °C 29.96in /  1014.4hPa Calm     88% 0.00in /  0mm 0 W/m2
04:00 58.4 °F /  14.7 °C 54.9 °F /  12.7 °C 29.96in /  1014.4hPa Calm     88% 0.00in /  0mm 0 W/m2
04:09 58.3 °F /  14.6 °C 54.7 °F /  12.6 °C 29.96in /  1014.4hPa Calm     88% 0.00in /  0mm 0 W/m2
04:14 58.2 °F /  14.6 °C 54.7 °F /  12.6 °C 29.96in /  1014.4hPa Calm     88.3% 0.00in /  0mm 0 W/m2
04:19 58.1 °F /  14.5 °C 54.8 °F /  12.7 °C 29.95in /  1014.1hPa Calm     89% 0.00in /  0mm 0 W/m2
04:24 58 °F /  14.4 °C 54.8 °F /  12.7 °C 29.95in /  1014.1hPa Calm     89% 0.00in /  0mm 0 W/m2
04:29 57.9 °F /  14.4 °C 54.7 °F /  12.6 °C 29.95in /  1014.1hPa Calm     89% 0.00in /  0mm 0 W/m2
04:34 57.8 °F /  14.3 °C 54.6 °F /  12.6 °C 29.95in /  1014.1hPa Calm     89% 0.00in /  0mm 0 W/m2
04:39 57.7 °F /  14.3 °C 54.5 °F /  12.5 °C 29.95in /  1014.1hPa Calm     89% 0.00in /  0mm 0 W/m2
04:44 57.6 °F /  14.2 °C 54.4 °F /  12.4 °C 29.95in /  1014.1hPa Calm     89% 0.00in /  0mm 0 W/m2
04:49 57.5 °F /  14.2 °C 54.3 °F /  12.4 °C 29.95in /  1014.1hPa Calm     89% 0.00in /  0mm 0 W/m2
04:54 57.3 °F /  14.1 °C 54.4 °F /  12.4 °C 29.95in /  1014.1hPa Calm     89.8% 0.00in /  0mm 0 W/m2
04:59 57.3 °F /  14.1 °C 54.4 °F /  12.4 °C 29.95in /  1014.1hPa Calm     90% 0.00in /  0mm 0 W/m2
05:04 57.1 °F /  13.9 °C 54.2 °F /  12.3 °C 29.95in /  1014.1hPa Calm     90% 0.00in /  0mm 0 W/m2
05:09 57 °F /  13.9 °C 54.1 °F /  12.3 °C 29.95in /  1014.1hPa Calm     90% 0.00in /  0mm 0 W/m2
05:14 56.8 °F /  13.8 °C 53.9 °F /  12.2 °C 29.95in /  1014.1hPa Calm     90% 0.00in /  0mm 0 W/m2
05:19 56.7 °F /  13.7 °C 53.8 °F /  12.1 °C 29.95in /  1014.1hPa Calm     90% 0.00in /  0mm 0 W/m2
05:24 56.6 °F /  13.7 °C 53.7 °F /  12.1 °C 29.95in /  1014.1hPa Calm     90% 0.00in /  0mm 0 W/m2
05:29 56.5 °F /  13.6 °C 53.9 °F /  12.2 °C 29.95in /  1014.1hPa Calm     91% 0.00in /  0mm 0 W/m2
05:34 56.5 °F /  13.6 °C 53.9 °F /  12.2 °C 29.95in /  1014.1hPa Calm     91% 0.00in /  0mm 0 W/m2
05:39 56.4 °F /  13.6 °C 53.8 °F /  12.1 °C 29.95in /  1014.1hPa Calm     91% 0.00in /  0mm 0 W/m2
05:44 56.3 °F /  13.5 °C 53.7 °F /  12.1 °C 29.95in /  1014.1hPa Calm     91% 0.00in /  0mm 0 W/m2
05:49 56.2 °F /  13.4 °C 53.7 °F /  12.1 °C 29.95in /  1014.1hPa Calm     91% 0.00in /  0mm 0 W/m2
05:54 56.2 °F /  13.4 °C 53.6 °F /  12 °C 29.95in /  1014.1hPa Calm     91% 0.00in /  0mm 0 W/m2
05:59 56.1 °F /  13.4 °C 53.8 °F /  12.1 °C 29.95in /  1014.1hPa Calm     92% 0.00in /  0mm 0 W/m2
06:04 56.1 °F /  13.4 °C 53.8 °F /  12.1 °C 29.95in /  1014.1hPa Calm     92% 0.00in /  0mm 0 W/m2
06:09 56 °F /  13.3 °C 53.7 °F /  12.1 °C 29.95in /  1014.1hPa Calm     92% 0.00in /  0mm 0 W/m2
06:14 56 °F /  13.3 °C 53.7 °F /  12.1 °C 29.95in /  1014.1hPa Calm     92% 0.00in /  0mm 0 W/m2
06:19 55.9 °F /  13.3 °C 53.6 °F /  12 °C 29.94in /  1013.8hPa Calm     92% 0.00in /  0mm 0 W/m2
06:24 55.9 °F /  13.3 °C 53.6 °F /  12 °C 29.95in /  1014.1hPa Calm     92% 0.00in /  0mm 0 W/m2
06:29 55.7 °F /  13.2 °C 53.5 °F /  11.9 °C 29.95in /  1014.1hPa Calm     92% 0.00in /  0mm 0 W/m2
06:34 55.6 °F /  13.1 °C 53.4 °F /  11.9 °C 29.95in /  1014.1hPa Calm     92% 0.00in /  0mm 0 W/m2
06:39 55.5 °F /  13.1 °C 53.2 °F /  11.8 °C 29.95in /  1014.1hPa Calm     92% 0.00in /  0mm 0 W/m2
06:44 55.5 °F /  13.1 °C 53.3 °F /  11.8 °C 29.95in /  1014.1hPa Calm     92.4% 0.00in /  0mm 0 W/m2
06:49 55.5 °F /  13.1 °C 53.5 °F /  11.9 °C 29.95in /  1014.1hPa Calm     93% 0.00in /  0mm 0 W/m2
06:54 55.4 °F /  13 °C 53.4 °F /  11.9 °C 29.95in /  1014.1hPa Calm     93% 0.00in /  0mm 5 W/m2
06:59 55.3 °F /  12.9 °C 53.3 °F /  11.8 °C 29.96in /  1014.4hPa Calm     93% 0.00in /  0mm 9 W/m2
07:04 55.3 °F /  12.9 °C 53.3 °F /  11.8 °C 29.95in /  1014.1hPa Calm     93% 0.00in /  0mm 11 W/m2
07:09 55.3 °F /  12.9 °C 53.3 °F /  11.8 °C 29.95in /  1014.1hPa Calm     93% 0.00in /  0mm 11 W/m2
07:14 55.1 °F /  12.8 °C 53.2 °F /  11.8 °C 29.95in /  1014.1hPa Calm     93% 0.00in /  0mm 11 W/m2
07:19 55.1 °F /  12.8 °C 53.1 °F /  11.7 °C 29.96in /  1014.4hPa Calm     93% 0.00in /  0mm 14 W/m2
07:24 55 °F /  12.8 °C 53.1 °F /  11.7 °C 29.96in /  1014.4hPa Calm     93% 0.00in /  0mm 16 W/m2
07:29 55 °F /  12.8 °C 53 °F /  11.7 °C 29.96in /  1014.4hPa Calm     93% 0.00in /  0mm 18 W/m2
07:34 55.1 °F /  12.8 °C 53.1 °F /  11.7 °C 29.95in /  1014.1hPa Calm     93% 0.00in /  0mm 18 W/m2
07:39 55.2 °F /  12.9 °C 53.3 °F /  11.8 °C 29.95in /  1014.1hPa Calm     93.3% 0.00in /  0mm 23 W/m2
07:44 55.3 °F /  12.9 °C 53.6 °F /  12 °C 29.95in /  1014.1hPa Calm     94% 0.00in /  0mm 26 W/m2
07:49 55.4 °F /  13 °C 53.7 °F /  12.1 °C 29.95in /  1014.1hPa Calm     94% 0.00in /  0mm 26 W/m2
07:54 55.5 °F /  13.1 °C 53.9 °F /  12.2 °C 29.95in /  1014.1hPa Calm     94% 0.00in /  0mm 26 W/m2
07:59 55.7 °F /  13.2 °C 54 °F /  12.2 °C 29.95in /  1014.1hPa Calm     94% 0.00in /  0mm 32 W/m2
08:00 55.8 °F /  13.2 °C 54.2 °F /  12.3 °C 29.95in /  1014.1hPa Calm     94% 0.00in /  0mm 32 W/m2
08:09 56.3 °F /  13.5 °C 54.6 °F /  12.6 °C 29.95in /  1014.1hPa Calm     94% 0.00in /  0mm 35 W/m2
08:14 56.5 °F /  13.6 °C 54.8 °F /  12.7 °C 29.95in /  1014.1hPa Calm     94% 0.00in /  0mm 28 W/m2
08:19 56.8 °F /  13.8 °C 55.1 °F /  12.8 °C 29.95in /  1014.1hPa Calm     94% 0.00in /  0mm 30 W/m2
08:24 57.1 °F /  13.9 °C 55.4 °F /  13 °C 29.95in /  1014.1hPa Calm     94% 0.00in /  0mm 32 W/m2
08:29 57.4 °F /  14.1 °C 55.7 °F /  13.2 °C 29.95in /  1014.1hPa Calm     94% 0.00in /  0mm 33 W/m2
08:34 57.7 °F /  14.3 °C 56 °F /  13.3 °C 29.95in /  1014.1hPa Calm     94% 0.00in /  0mm 40 W/m2
08:39 58 °F /  14.4 °C 56.3 °F /  13.5 °C 29.95in /  1014.1hPa Calm     94% 0.00in /  0mm 81 W/m2
08:44 58.5 °F /  14.7 °C 56.7 °F /  13.7 °C 29.96in /  1014.4hPa Calm     94% 0.00in /  0mm 141 W/m2
08:49 59 °F /  15 °C 57.3 °F /  14.1 °C 29.95in /  1014.1hPa Calm     94% 0.00in /  0mm 186 W/m2
08:54 59.8 °F /  15.4 °C 57.7 °F /  14.3 °C 29.95in /  1014.1hPa Calm     92.7% 0.00in /  0mm 186 W/m2
08:59 60.6 °F /  15.9 °C 58 °F /  14.4 °C 29.96in /  1014.4hPa WNW 0.1mph /  0.2km/h 2mph /  3.2km/h 91.1% 0.00in /  0mm 179 W/m2
09:04 61.4 °F /  16.3 °C 58.3 °F /  14.6 °C 29.95in /  1014.1hPa Calm   2mph /  3.2km/h 89.4% 0.00in /  0mm 118 W/m2
09:09 62.1 °F /  16.7 °C 58.4 °F /  14.7 °C 29.96in /  1014.4hPa Calm     87.8% 0.00in /  0mm 181 W/m2
09:14 62.7 °F /  17.1 °C 59 °F /  15 °C 29.96in /  1014.4hPa Calm     87.5% 0.00in /  0mm 229 W/m2
09:19 63.4 °F /  17.4 °C 59.1 °F /  15.1 °C 29.96in /  1014.4hPa Calm     85.9% 0.00in /  0mm 186 W/m2
09:24 63.9 °F /  17.7 °C 58.9 °F /  14.9 °C 29.96in /  1014.4hPa Calm     83.7% 0.00in /  0mm 255 W/m2
09:29 64.5 °F /  18.1 °C 59.5 °F /  15.3 °C 29.95in /  1014.1hPa Calm     83.8% 0.00in /  0mm 385 W/m2
09:34 65.3 °F /  18.5 °C 59.9 °F /  15.5 °C 29.95in /  1014.1hPa Calm     82.9% 0.00in /  0mm 236 W/m2
09:39 65.9 °F /  18.8 °C 60 °F /  15.6 °C 29.96in /  1014.4hPa Calm     81.4% 0.00in /  0mm 304 W/m2
09:44 66.4 °F /  19.1 °C 60.4 °F /  15.8 °C 29.96in /  1014.4hPa Calm     80.8% 0.00in /  0mm 594 W/m2
09:49 67 °F /  19.4 °C 60.6 °F /  15.9 °C 29.96in /  1014.4hPa Calm     79.9% 0.00in /  0mm 594 W/m2
09:54 67.7 °F /  19.8 °C 60.4 °F /  15.8 °C 29.95in /  1014.1hPa Calm     77.6% 0.00in /  0mm 570 W/m2
09:59 68.6 °F /  20.3 °C 60.7 °F /  15.9 °C 29.95in /  1014.1hPa Calm     76.1% 0.00in /  0mm 629 W/m2
10:04 69.8 °F /  21 °C 61.2 °F /  16.2 °C 29.96in /  1014.4hPa Calm     74.1% 0.00in /  0mm 629 W/m2
10:09 70.6 °F /  21.4 °C 60.7 °F /  15.9 °C 29.96in /  1014.4hPa Calm     70.8% 0.00in /  0mm 568 W/m2
10:14 71.2 °F /  21.8 °C 60.7 °F /  15.9 °C 29.95in /  1014.1hPa Calm     69.5% 0.00in /  0mm 599 W/m2
10:19 72 °F /  22.2 °C 61.2 °F /  16.2 °C 29.96in /  1014.4hPa Calm   1mph /  1.6km/h 68.8% 0.00in /  0mm 610 W/m2
10:24 72.6 °F /  22.6 °C 61.6 °F /  16.4 °C 29.96in /  1014.4hPa Calm   1mph /  1.6km/h 68.5% 0.00in /  0mm 325 W/m2
10:29 73 °F /  22.8 °C 61.1 °F /  16.2 °C 29.96in /  1014.4hPa Calm   1mph /  1.6km/h 66.4% 0.00in /  0mm 628 W/m2
10:34 73.3 °F /  22.9 °C 61.2 °F /  16.2 °C 29.96in /  1014.4hPa Calm   1mph /  1.6km/h 66% 0.00in /  0mm 406 W/m2
10:39 73.5 °F /  23.1 °C 61.2 °F /  16.2 °C 29.96in /  1014.4hPa Calm     65.3% 0.00in /  0mm 406 W/m2
10:44 73.6 °F /  23.1 °C 61.2 °F /  16.2 °C 29.95in /  1014.1hPa Calm     65.2% 0.00in /  0mm 652 W/m2
10:49 73.8 °F /  23.2 °C 61.7 °F /  16.5 °C 29.95in /  1014.1hPa Calm     65.9% 0.00in /  0mm 652 W/m2
10:54 73.9 °F /  23.3 °C 61.7 °F /  16.5 °C 29.95in /  1014.1hPa NNW 0.1mph /  0.2km/h 2mph /  3.2km/h 65.6% 0.00in /  0mm 689 W/m2
10:59 74 °F /  23.3 °C 60.8 °F /  16 °C 29.95in /  1014.1hPa North 0.1mph /  0.2km/h 2mph /  3.2km/h 63.4% 0.00in /  0mm 810 W/m2
11:04 74.2 °F /  23.4 °C 61.8 °F /  16.6 °C 29.95in /  1014.1hPa Calm   2mph /  3.2km/h 65.2% 0.00in /  0mm 789 W/m2
11:09 74.5 °F /  23.6 °C 61.3 °F /  16.3 °C 29.95in /  1014.1hPa Calm     63.5% 0.00in /  0mm 281 W/m2
11:14 74.3 °F /  23.5 °C 60.6 °F /  15.9 °C 29.94in /  1013.8hPa Calm     62.3% 0.00in /  0mm 236 W/m2
11:19 74 °F /  23.3 °C 61 °F /  16.1 °C 29.94in /  1013.8hPa Calm     63.8% 0.00in /  0mm 195 W/m2
11:24 73.7 °F /  23.2 °C 61.1 °F /  16.2 °C 29.94in /  1013.8hPa Calm     64.7% 0.00in /  0mm 160 W/m2
11:29 73.3 °F /  22.9 °C 60.6 °F /  15.9 °C 29.94in /  1013.8hPa Calm     64.4% 0.00in /  0mm 176 W/m2
11:34 73.1 °F /  22.8 °C 60.7 °F /  15.9 °C 29.94in /  1013.8hPa Calm     65.3% 0.00in /  0mm 190 W/m2
11:39 72.8 °F /  22.7 °C 60.4 °F /  15.8 °C 29.94in /  1013.8hPa Calm     65.2% 0.00in /  0mm 183 W/m2
11:44 72.6 °F /  22.6 °C 60.2 °F /  15.7 °C 29.94in /  1013.8hPa Calm     65% 0.00in /  0mm 165 W/m2
11:49 72.5 °F /  22.5 °C 60.5 °F /  15.8 °C 29.94in /  1013.8hPa Calm     66.1% 0.00in /  0mm 139 W/m2
11:54 72.3 °F /  22.4 °C 60.1 °F /  15.6 °C 29.94in /  1013.8hPa Calm     65.5% 0.00in /  0mm 130 W/m2
11:59 72.2 °F /  22.3 °C 60.7 °F /  15.9 °C 29.94in /  1013.8hPa Calm     67.3% 0.00in /  0mm 120 W/m2
12:00 72.1 °F /  22.3 °C 61 °F /  16.1 °C 29.94in /  1013.8hPa Calm     68% 0.00in /  0mm 120 W/m2
12:09 71.8 °F /  22.1 °C 60.9 °F /  16.1 °C 29.93in /  1013.4hPa Calm     68.5% 0.00in /  0mm 162 W/m2
12:14 71.7 °F /  22.1 °C 60.7 °F /  15.9 °C 29.93in /  1013.4hPa Calm     68.2% 0.00in /  0mm 234 W/m2
12:19 71.6 °F /  22 °C 60.5 °F /  15.8 °C 29.93in /  1013.4hPa Calm     68% 0.00in /  0mm 250 W/m2
12:24 71.7 °F /  22.1 °C 60.5 °F /  15.8 °C 29.93in /  1013.4hPa Calm     67.7% 0.00in /  0mm 281 W/m2
12:29 71.9 °F /  22.2 °C 60.6 °F /  15.9 °C 29.93in /  1013.4hPa Calm     67.6% 0.00in /  0mm 283 W/m2
12:34 72.2 °F /  22.3 °C 61.5 °F /  16.4 °C 29.93in /  1013.4hPa Calm     69.2% 0.00in /  0mm 216 W/m2
12:39 72.4 °F /  22.4 °C 61.5 °F /  16.4 °C 29.93in /  1013.4hPa Calm     68.7% 0.00in /  0mm 162 W/m2
12:44 72.5 °F /  22.5 °C 61.9 °F /  16.6 °C 29.93in /  1013.4hPa Calm     69.4% 0.00in /  0mm 144 W/m2
12:49 72.5 °F /  22.5 °C 61.5 °F /  16.4 °C 29.93in /  1013.4hPa Calm     68.5% 0.00in /  0mm 134 W/m2
12:54 72.4 °F /  22.4 °C 61.5 °F /  16.4 °C 29.93in /  1013.4hPa Calm     68.7% 0.00in /  0mm 135 W/m2
12:59 72.4 °F /  22.4 °C 61.2 °F /  16.2 °C 29.92in /  1013.1hPa Calm     67.8% 0.00in /  0mm 155 W/m2
13:04 72.5 °F /  22.5 °C 61.8 °F /  16.6 °C 29.92in /  1013.1hPa Calm     69.3% 0.00in /  0mm 171 W/m2
13:09 72.6 °F /  22.6 °C 61.8 °F /  16.6 °C 29.92in /  1013.1hPa Calm     68.9% 0.00in /  0mm 171 W/m2
13:14 72.7 °F /  22.6 °C 61.6 °F /  16.4 °C 29.92in /  1013.1hPa Calm     68.3% 0.00in /  0mm 195 W/m2
13:19 72.8 °F /  22.7 °C 61.1 °F /  16.2 °C 29.92in /  1013.1hPa Calm     66.8% 0.00in /  0mm 211 W/m2
13:24 72.9 °F /  22.7 °C 61.7 °F /  16.5 °C 29.91in /  1012.8hPa Calm     67.9% 0.00in /  0mm 239 W/m2
13:29 73 °F /  22.8 °C 61.7 °F /  16.5 °C 29.91in /  1012.8hPa Calm     67.6% 0.00in /  0mm 241 W/m2
13:34 73.2 °F /  22.9 °C 61.6 °F /  16.4 °C 29.91in /  1012.8hPa Calm   1mph /  1.6km/h 67.2% 0.00in /  0mm 237 W/m2
13:39 73.2 °F /  22.9 °C 61.2 °F /  16.2 °C 29.91in /  1012.8hPa Calm   1mph /  1.6km/h 66% 0.00in /  0mm 237 W/m2
13:44 73.2 °F /  22.9 °C 61.1 °F /  16.2 °C 29.91in /  1012.8hPa Calm   1mph /  1.6km/h 65.9% 0.00in /  0mm 151 W/m2
13:49 73.2 °F /  22.9 °C 60.9 °F /  16.1 °C 29.91in /  1012.8hPa Calm   1mph /  1.6km/h 65.4% 0.00in /  0mm 148 W/m2
13:54 73.1 °F /  22.8 °C 61.1 °F /  16.2 °C 29.91in /  1012.8hPa Calm   1mph /  1.6km/h 66% 0.00in /  0mm 190 W/m2
13:59 73.1 °F /  22.8 °C 60.7 °F /  15.9 °C 29.90in /  1012.4hPa Calm   1mph /  1.6km/h 65% 0.00in /  0mm 197 W/m2
14:04 73.2 °F /  22.9 °C 61.1 °F /  16.2 °C 29.90in /  1012.4hPa Calm   1mph /  1.6km/h 65.8% 0.00in /  0mm 211 W/m2
14:09 73.3 °F /  22.9 °C 61.9 °F /  16.6 °C 29.90in /  1012.4hPa Calm     67.3% 0.00in /  0mm 211 W/m2
14:14 73.5 °F /  23.1 °C 62.5 °F /  16.9 °C 29.90in /  1012.4hPa Calm     68.5% 0.00in /  0mm 178 W/m2
14:19 73.5 °F /  23.1 °C 62.3 °F /  16.8 °C 29.90in /  1012.4hPa Calm     68.1% 0.00in /  0mm 135 W/m2
14:24 73.5 °F /  23.1 °C 61.7 °F /  16.5 °C 29.89in /  1012.1hPa Calm     66.6% 0.00in /  0mm 135 W/m2
14:29 73.5 °F /  23.1 °C 62.2 °F /  16.8 °C 29.90in /  1012.4hPa Calm     67.7% 0.00in /  0mm 105 W/m2
14:34 73.6 °F /  23.1 °C 62.1 °F /  16.7 °C 29.90in /  1012.4hPa Calm     67.3% 0.00in /  0mm 158 W/m2
14:39 73.6 °F /  23.1 °C 62.4 °F /  16.9 °C 29.90in /  1012.4hPa Calm     68.1% 0.00in /  0mm 179 W/m2
14:44 73.5 °F /  23.1 °C 61.9 °F /  16.6 °C 29.89in /  1012.1hPa Calm     66.9% 0.00in /  0mm 200 W/m2
14:49 73.6 °F /  23.1 °C 62.5 °F /  16.9 °C 29.89in /  1012.1hPa Calm     68.2% 0.00in /  0mm 251 W/m2
14:54 73.8 °F /  23.2 °C 62.2 °F /  16.8 °C 29.89in /  1012.1hPa Calm     67.2% 0.00in /  0mm 239 W/m2
14:59 73.9 °F /  23.3 °C 61.7 °F /  16.5 °C 29.89in /  1012.1hPa Calm     65.6% 0.00in /  0mm 243 W/m2
15:04 74 °F /  23.3 °C 62.3 °F /  16.8 °C 29.89in /  1012.1hPa Calm     66.9% 0.00in /  0mm 220 W/m2
15:09 74 °F /  23.3 °C 62.3 °F /  16.8 °C 29.89in /  1012.1hPa Calm     66.7% 0.00in /  0mm 213 W/m2
15:14 74.1 °F /  23.4 °C 62.1 °F /  16.7 °C 29.89in /  1012.1hPa Calm     66.2% 0.00in /  0mm 199 W/m2
15:19 74.2 °F /  23.4 °C 62.6 °F /  17 °C 29.89in /  1012.1hPa Calm     67.1% 0.00in /  0mm 190 W/m2
15:24 74.4 °F /  23.6 °C 62.5 °F /  16.9 °C 29.88in /  1011.7hPa Calm     66.6% 0.00in /  0mm 167 W/m2
15:29 74.4 °F /  23.6 °C 61.9 °F /  16.6 °C 29.88in /  1011.7hPa Calm     65% 0.00in /  0mm 141 W/m2
15:34 74.4 °F /  23.6 °C 62.8 °F /  17.1 °C 29.88in /  1011.7hPa Calm     67.1% 0.00in /  0mm 121 W/m2
15:39 74.5 °F /  23.6 °C 63 °F /  17.2 °C 29.88in /  1011.7hPa Calm     67.3% 0.00in /  0mm 120 W/m2
15:44 74.6 °F /  23.7 °C 63 °F /  17.2 °C 29.88in /  1011.7hPa Calm     67.3% 0.00in /  0mm 105 W/m2
15:49 74.6 °F /  23.7 °C 63.1 °F /  17.3 °C 29.89in /  1012.1hPa Calm     67.5% 0.00in /  0mm 84 W/m2
15:54 74.6 °F /  23.7 °C 63.1 °F /  17.3 °C 29.89in /  1012.1hPa Calm     67.5% 0.00in /  0mm 67 W/m2
15:59 74.5 °F /  23.6 °C 63.5 °F /  17.5 °C 29.88in /  1011.7hPa Calm     68.6% 0.00in /  0mm 67 W/m2
16:04 74.2 °F /  23.4 °C 63.4 °F /  17.4 °C 29.88in /  1011.7hPa Calm     69% 0.00in /  0mm 40 W/m2
16:09 74.1 °F /  23.4 °C 63.5 °F /  17.5 °C 29.88in /  1011.7hPa Calm     69.6% 0.00in /  0mm 46 W/m2
16:14 73.9 °F /  23.3 °C 63.8 °F /  17.7 °C 29.88in /  1011.7hPa Calm     70.5% 0.00in /  0mm 47 W/m2
16:19 73.9 °F /  23.3 °C 63.9 °F /  17.7 °C 29.88in /  1011.7hPa Calm     71% 0.00in /  0mm 47 W/m2
16:24 73.7 °F /  23.2 °C 63.7 °F /  17.6 °C 29.88in /  1011.7hPa Calm     70.8% 0.00in /  0mm 56 W/m2
16:29 73.7 °F /  23.2 °C 64.2 °F /  17.9 °C 29.88in /  1011.7hPa Calm     72.3% 0.00in /  0mm 58 W/m2
16:34 73.5 °F /  23.1 °C 63.7 °F /  17.6 °C 29.88in /  1011.7hPa Calm     71.4% 0.00in /  0mm 47 W/m2
16:39 73.4 °F /  23 °C 63.6 °F /  17.6 °C 29.88in /  1011.7hPa Calm     71.4% 0.00in /  0mm 39 W/m2
16:44 73.3 °F /  22.9 °C 64.1 °F /  17.8 °C 29.88in /  1011.7hPa Calm     73% 0.00in /  0mm 32 W/m2
16:49 73.2 °F /  22.9 °C 64 °F /  17.8 °C 29.88in /  1011.7hPa Calm     72.8% 0.00in /  0mm 30 W/m2
16:54 73.1 °F /  22.8 °C 64.1 °F /  17.8 °C 29.88in /  1011.7hPa Calm     73.2% 0.00in /  0mm 32 W/m2
16:59 73.1 °F /  22.8 °C 64 °F /  17.8 °C 29.88in /  1011.7hPa Calm     73.3% 0.00in /  0mm 33 W/m2
17:04 73 °F /  22.8 °C 63.4 °F /  17.4 °C 29.89in /  1012.1hPa Calm     72.1% 0.00in /  0mm 40 W/m2
17:09 72.8 °F /  22.7 °C 63.8 °F /  17.7 °C 29.89in /  1012.1hPa Calm     73.3% 0.00in /  0mm 39 W/m2
17:14 72.8 °F /  22.7 °C 64.4 °F /  18 °C 29.89in /  1012.1hPa Calm     75% 0.00in /  0mm 25 W/m2
17:19 72.6 °F /  22.6 °C 64.2 °F /  17.9 °C 29.89in /  1012.1hPa Calm     74.7% 0.00in /  0mm 19 W/m2
17:24 72.5 °F /  22.5 °C 64.6 °F /  18.1 °C 29.89in /  1012.1hPa Calm     76.2% 0.00in /  0mm 19 W/m2
17:29 72.5 °F /  22.5 °C 65.1 °F /  18.4 °C 29.89in /  1012.1hPa Calm     77.5% 0.00in /  0mm 14 W/m2
17:34 72.2 °F /  22.3 °C 64.9 °F /  18.3 °C 29.89in /  1012.1hPa North 0.1mph /  0.2km/h 2mph /  3.2km/h 77.8% 0.00in /  0mm 9 W/m2
17:39 71.9 °F /  22.2 °C 64.8 °F /  18.2 °C 29.89in /  1012.1hPa Calm   2mph /  3.2km/h 78.3% 0.00in /  0mm 0 W/m2
17:44 71.6 °F /  22 °C 64.8 °F /  18.2 °C 29.89in /  1012.1hPa Calm   2mph /  3.2km/h 79% 0.00in /  0mm 0 W/m2
17:49 71.3 °F /  21.8 °C 64.8 °F /  18.2 °C 29.89in /  1012.1hPa Calm   2mph /  3.2km/h 80.1% 0.00in /  0mm 0 W/m2
17:54 70.9 °F /  21.6 °C 64.6 °F /  18.1 °C 29.89in /  1012.1hPa Calm   2mph /  3.2km/h 80.5% 0.00in /  0mm 0 W/m2
17:59 70.5 °F /  21.4 °C 64.4 °F /  18 °C 29.89in /  1012.1hPa Calm   2mph /  3.2km/h 81% 0.00in /  0mm 0 W/m2
18:04 70.1 °F /  21.2 °C 63.9 °F /  17.7 °C 29.89in /  1012.1hPa Calm   2mph /  3.2km/h 80.6% 0.00in /  0mm 0 W/m2
18:09 69.9 °F /  21.1 °C 64 °F /  17.8 °C 29.89in /  1012.1hPa Calm     81.7% 0.00in /  0mm 0 W/m2
18:14 69.7 °F /  20.9 °C 64 °F /  17.8 °C 29.90in /  1012.4hPa Calm     82% 0.00in /  0mm 0 W/m2
18:19 69.5 °F /  20.8 °C 63.6 °F /  17.6 °C 29.90in /  1012.4hPa Calm     81.6% 0.00in /  0mm 0 W/m2
18:24 69.2 °F /  20.7 °C 63.2 °F /  17.3 °C 29.90in /  1012.4hPa Calm     81.2% 0.00in /  0mm 0 W/m2
18:29 69.2 °F /  20.7 °C 63.7 °F /  17.6 °C 29.90in /  1012.4hPa Calm     82.7% 0.00in /  0mm 0 W/m2
18:34 69.1 °F /  20.6 °C 64 °F /  17.8 °C 29.90in /  1012.4hPa Calm     84% 0.00in /  0mm 0 W/m2
18:39 68.8 °F /  20.4 °C 63.8 °F /  17.7 °C 29.90in /  1012.4hPa Calm     84% 0.00in /  0mm 0 W/m2
18:44 68.7 °F /  20.4 °C 64 °F /  17.8 °C 29.90in /  1012.4hPa Calm     85% 0.00in /  0mm 0 W/m2
18:49 68.6 °F /  20.3 °C 64.2 °F /  17.9 °C 29.90in /  1012.4hPa Calm     86% 0.01in /  0.25mm 0 W/m2
18:54 68.4 °F /  20.2 °C 64.1 °F /  17.8 °C 29.90in /  1012.4hPa Calm     86% 0.01in /  0.25mm 0 W/m2
18:59 68.2 °F /  20.1 °C 64.2 °F /  17.9 °C 29.90in /  1012.4hPa Calm     87% 0.01in /  0.25mm 0 W/m2
19:04 68 °F /  20 °C 64.1 °F /  17.8 °C 29.90in /  1012.4hPa Calm     87.2% 0.01in /  0.25mm 0 W/m2
19:09 67.9 °F /  19.9 °C 64.2 °F /  17.9 °C 29.90in /  1012.4hPa Calm     87.8% 0.01in /  0.25mm 0 W/m2
19:14 67.8 °F /  19.9 °C 64.2 °F /  17.9 °C 29.90in /  1012.4hPa North 0.1mph /  0.2km/h 2mph /  3.2km/h 88.1% 0.01in /  0.25mm 0 W/m2
19:19 67.7 °F /  19.8 °C 64.2 °F /  17.9 °C 29.90in /  1012.4hPa Calm   2mph /  3.2km/h 88.6% 0.01in /  0.25mm 0 W/m2
19:24 67.5 °F /  19.7 °C 64.1 °F /  17.8 °C 29.90in /  1012.4hPa Calm   2mph /  3.2km/h 89% 0.01in /  0.25mm 0 W/m2
19:29 67.3 °F /  19.6 °C 64 °F /  17.8 °C 29.90in /  1012.4hPa Calm   2mph /  3.2km/h 89% 0.01in /  0.25mm 0 W/m2
19:34 67.3 °F /  19.6 °C 64.1 °F /  17.8 °C 29.91in /  1012.8hPa North 0.3mph /  0.5km/h 4mph /  6.4km/h 89.7% 0.01in /  0.25mm 0 W/m2
19:39 67.2 °F /  19.6 °C 64.2 °F /  17.9 °C 29.91in /  1012.8hPa NNW 0.1mph /  0.2km/h 5mph /  8km/h 90% 0.01in /  0.25mm 0 W/m2
19:44 67.1 °F /  19.5 °C 63.9 °F /  17.7 °C 29.91in /  1012.8hPa NNW 0.2mph /  0.3km/h 5mph /  8km/h 89.3% 0.01in /  0.25mm 0 W/m2
19:49 67 °F /  19.4 °C 63.9 °F /  17.7 °C 29.92in /  1013.1hPa Calm   5mph /  8km/h 89.7% 0.01in /  0.25mm 0 W/m2
19:54 66.8 °F /  19.3 °C 63.5 °F /  17.5 °C 29.92in /  1013.1hPa Calm   5mph /  8km/h 89% 0.01in /  0.25mm 0 W/m2
19:59 66.7 °F /  19.3 °C 63.3 °F /  17.4 °C 29.92in /  1013.1hPa Calm   5mph /  8km/h 89% 0.01in /  0.25mm 0 W/m2
20:09 66.3 °F /  19.1 °C 63 °F /  17.2 °C 29.91in /  1012.8hPa Calm     89% 0.01in /  0.25mm 0 W/m2
20:14 66.2 °F /  19 °C 62.9 °F /  17.2 °C 29.91in /  1012.8hPa Calm     89% 0.01in /  0.25mm 0 W/m2
20:19 66.1 °F /  18.9 °C 63.1 °F /  17.3 °C 29.91in /  1012.8hPa Calm     89.9% 0.01in /  0.25mm 0 W/m2
20:24 66.1 °F /  18.9 °C 63.1 °F /  17.3 °C 29.91in /  1012.8hPa Calm     90% 0.01in /  0.25mm 0 W/m2
20:29 66.1 °F /  18.9 °C 63.1 °F /  17.3 °C 29.91in /  1012.8hPa NE 0.3mph /  0.5km/h 4mph /  6.4km/h 90% 0.01in /  0.25mm 0 W/m2
20:34 66 °F /  18.9 °C 63 °F /  17.2 °C 29.91in /  1012.8hPa Calm   4mph /  6.4km/h 90% 0.01in /  0.25mm 0 W/m2
20:39 65.9 °F /  18.8 °C 62.8 °F /  17.1 °C 29.91in /  1012.8hPa NE 0.1mph /  0.2km/h 4mph /  6.4km/h 90% 0.00in /  0mm 0 W/m2
20:44 65.7 °F /  18.7 °C 63 °F /  17.2 °C 29.91in /  1012.8hPa NE 0.1mph /  0.2km/h 4mph /  6.4km/h 90.7% 0.00in /  0mm 0 W/m2
20:49 65.6 °F /  18.7 °C 62.9 °F /  17.2 °C 29.91in /  1012.8hPa Calm   4mph /  6.4km/h 91% 0.00in /  0mm 0 W/m2
20:54 65.5 °F /  18.6 °C 62.8 °F /  17.1 °C 29.91in /  1012.8hPa Calm   4mph /  6.4km/h 91.2% 0.00in /  0mm 0 W/m2
20:59 65.4 °F /  18.6 °C 62.7 °F /  17.1 °C 29.91in /  1012.8hPa Calm   4mph /  6.4km/h 91% 0.00in /  0mm 0 W/m2
21:04 65.3 °F /  18.5 °C 62.6 °F /  17 °C 29.91in /  1012.8hPa Calm   4mph /  6.4km/h 91% 0.00in /  0mm 0 W/m2
21:09 65.2 °F /  18.4 °C 62.6 °F /  17 °C 29.91in /  1012.8hPa Calm     91% 0.00in /  0mm 0 W/m2
21:14 65.2 °F /  18.4 °C 62.5 °F /  16.9 °C 29.92in /  1013.1hPa Calm     91% 0.00in /  0mm 0 W/m2
21:19 65.2 °F /  18.4 °C 62.5 °F /  16.9 °C 29.92in /  1013.1hPa Calm     91% 0.00in /  0mm 0 W/m2
21:24 65.1 °F /  18.4 °C 62.4 °F /  16.9 °C 29.92in /  1013.1hPa Calm     91% 0.00in /  0mm 0 W/m2
21:29 65.1 °F /  18.4 °C 62.4 °F /  16.9 °C 29.92in /  1013.1hPa Calm     91% 0.00in /  0mm 0 W/m2
21:34 65 °F /  18.3 °C 62.3 °F /  16.8 °C 29.92in /  1013.1hPa Calm     91% 0.00in /  0mm 0 W/m2
21:39 65 °F /  18.3 °C 62.3 °F /  16.8 °C 29.92in /  1013.1hPa Calm     91% 0.00in /  0mm 0 W/m2
21:44 65 °F /  18.3 °C 62.4 °F /  16.9 °C 29.92in /  1013.1hPa Calm     91.2% 0.00in /  0mm 0 W/m2
21:49 64.9 °F /  18.3 °C 62.5 °F /  16.9 °C 29.92in /  1013.1hPa Calm     92% 0.00in /  0mm 0 W/m2
21:54 64.9 °F /  18.3 °C 62.3 °F /  16.8 °C 29.92in /  1013.1hPa Calm   1mph /  1.6km/h 91.3% 0.00in /  0mm 0 W/m2
21:59 64.8 °F /  18.2 °C 62.4 °F /  16.9 °C 29.92in /  1013.1hPa Calm   1mph /  1.6km/h 91.9% 0.00in /  0mm 0 W/m2
22:04 64.8 °F /  18.2 °C 62.4 °F /  16.9 °C 29.92in /  1013.1hPa Calm   1mph /  1.6km/h 92% 0.00in /  0mm 0 W/m2
22:09 64.8 °F /  18.2 °C 62.4 °F /  16.9 °C 29.92in /  1013.1hPa NE 0.2mph /  0.3km/h 3mph /  4.8km/h 92% 0.00in /  0mm 0 W/m2
22:14 64.7 °F /  18.2 °C 62.4 °F /  16.9 °C 29.92in /  1013.1hPa Calm   3mph /  4.8km/h 92% 0.00in /  0mm 0 W/m2
22:19 64.7 °F /  18.2 °C 62.3 °F /  16.8 °C 29.92in /  1013.1hPa Calm   3mph /  4.8km/h 92% 0.00in /  0mm 0 W/m2
22:24 64.6 °F /  18.1 °C 62.2 °F /  16.8 °C 29.92in /  1013.1hPa NW 0.4mph /  0.6km/h 5mph /  8km/h 92% 0.00in /  0mm 0 W/m2
22:29 64.4 °F /  18 °C 62.1 °F /  16.7 °C 29.92in /  1013.1hPa NNW 0.1mph /  0.2km/h 5mph /  8km/h 92% 0.00in /  0mm 0 W/m2
22:34 64.3 °F /  17.9 °C 61.9 °F /  16.6 °C 29.92in /  1013.1hPa NNW 0.1mph /  0.2km/h 5mph /  8km/h 92% 0.00in /  0mm 0 W/m2
22:39 64.2 °F /  17.9 °C 61.8 °F /  16.6 °C 29.92in /  1013.1hPa Calm   2mph /  3.2km/h 92% 0.00in /  0mm 0 W/m2
22:44 64 °F /  17.8 °C 61.7 °F /  16.5 °C 29.92in /  1013.1hPa NNW 0.1mph /  0.2km/h 2mph /  3.2km/h 92% 0.00in /  0mm 0 W/m2
22:49 63.9 °F /  17.7 °C 61.6 °F /  16.4 °C 29.92in /  1013.1hPa NNW 0.1mph /  0.2km/h 4mph /  6.4km/h 92% 0.00in /  0mm 0 W/m2
22:54 63.8 °F /  17.7 °C 61.5 °F /  16.4 °C 29.92in /  1013.1hPa NW 0.1mph /  0.2km/h 4mph /  6.4km/h 92% 0.00in /  0mm 0 W/m2
22:59 63.7 °F /  17.6 °C 61.4 °F /  16.3 °C 29.92in /  1013.1hPa Calm   4mph /  6.4km/h 92% 0.00in /  0mm 0 W/m2
23:04 63.6 °F /  17.6 °C 61.3 °F /  16.3 °C 29.92in /  1013.1hPa Calm   4mph /  6.4km/h 92% 0.00in /  0mm 0 W/m2
23:09 63.6 °F /  17.6 °C 61.2 °F /  16.2 °C 29.93in /  1013.4hPa Calm   1mph /  1.6km/h 92% 0.00in /  0mm 0 W/m2
23:14 63.5 °F /  17.5 °C 61.1 °F /  16.2 °C 29.92in /  1013.1hPa Calm   1mph /  1.6km/h 92% 0.00in /  0mm 0 W/m2
23:19 63.4 °F /  17.4 °C 61.1 °F /  16.2 °C 29.93in /  1013.4hPa Calm   1mph /  1.6km/h 92% 0.00in /  0mm 0 W/m2
23:24 63.4 °F /  17.4 °C 61.2 °F /  16.2 °C 29.93in /  1013.4hPa Calm   1mph /  1.6km/h 92.6% 0.00in /  0mm 0 W/m2
23:29 63.4 °F /  17.4 °C 61.3 °F /  16.3 °C 29.92in /  1013.1hPa Calm   1mph /  1.6km/h 93% 0.00in /  0mm 0 W/m2
23:34 63.4 °F /  17.4 °C 61.3 °F /  16.3 °C 29.92in /  1013.1hPa Calm   1mph /  1.6km/h 93% 0.00in /  0mm 0 W/m2
23:39 63.4 °F /  17.4 °C 61.3 °F /  16.3 °C 29.93in /  1013.4hPa Calm     93% 0.00in /  0mm 0 W/m2
23:44 63.3 °F /  17.4 °C 61.3 °F /  16.3 °C 29.93in /  1013.4hPa Calm     93% 0.00in /  0mm 0 W/m2
23:49 63.3 °F /  17.4 °C 61.3 °F /  16.3 °C 29.93in /  1013.4hPa Calm     93% 0.03in /  0.76mm 0 W/m2
23:54 63.3 °F /  17.4 °C 61.3 °F /  16.3 °C 29.92in /  1013.1hPa Calm   1mph /  1.6km/h 93% 0.03in /  0.76mm 0 W/m2
23:59 63.3 °F /  17.4 °C 61.2 °F /  16.2 °C 29.92in /  1013.1hPa Calm   1mph /  1.6km/h 93% 0.03in /  0.76mm 0 W/m2
Hartford County Weather
Compliments of Weather Underground - 4 mb